Time;durP1;ratioP1;P1;durP2;ratioP2;P2;SDS_P1;SDS_P2;PMS_P1;PMS_P2;Temp;Humidity;BMP_temperature;BMP_pressure;BME280_temperature;BME280_humidity;BME280_pressure;Samples;Min_cycle;Max_cycle;Signal;HPM_P1;HPM_P2
2021/12/18 00:01:15;;;;;;;27.05;18.27;;;;;;;7.20;100.00;103968.78;5052254;28;20472;-52
2021/12/18 00:03:41;;;;;;;26.98;16.83;;;;;;;7.24;100.00;103978.50;5052399;28;20460;-52
2021/12/18 00:06:06;;;;;;;27.48;18.85;;;;;;;7.24;100.00;103986.34;5048632;28;20116;-51
2021/12/18 00:08:32;;;;;;;25.35;18.52;;;;;;;7.26;100.00;103986.44;5024083;28;20041;-54
2021/12/18 00:10:57;;;;;;;33.40;20.95;;;;;;;7.19;100.00;103973.97;5051765;28;20032;-52
2021/12/18 00:13:23;;;;;;;42.08;23.52;;;;;;;7.25;100.00;103990.78;5052173;28;20445;-55
2021/12/18 00:15:49;;;;;;;41.78;23.55;;;;;;;7.19;100.00;103972.25;5034160;28;20032;-52
2021/12/18 00:18:14;;;;;;;38.97;23.63;;;;;;;7.25;100.00;103976.78;5050605;28;20074;-52
2021/12/18 00:20:40;;;;;;;37.85;23.00;;;;;;;7.26;100.00;103968.97;5051907;28;20021;-53
2021/12/18 00:23:06;;;;;;;40.47;23.40;;;;;;;6.93;100.00;103906.78;5051522;28;20029;-52
2021/12/18 00:25:31;;;;;;;42.20;24.80;;;;;;;7.27;100.00;103972.47;5050707;28;20047;-50
2021/12/18 00:27:57;;;;;;;46.72;24.00;;;;;;;6.97;100.00;103912.19;5051713;28;20039;-52
2021/12/18 00:30:23;;;;;;;45.95;24.63;;;;;;;7.29;100.00;103963.84;5034282;28;20481;-50
2021/12/18 00:32:48;;;;;;;39.47;23.17;;;;;;;7.25;100.00;103958.44;5034034;28;20049;-53
2021/12/18 00:35:14;;;;;;;42.58;21.80;;;;;;;7.26;100.00;103961.13;5051841;28;20033;-52
2021/12/18 00:37:40;;;;;;;43.13;23.83;;;;;;;6.90;100.00;103907.56;5054477;28;20030;-52
2021/12/18 00:40:10;;;;;;;39.70;22.58;;;;;;;7.29;100.00;103961.22;5056079;28;20041;-52
2021/12/18 00:45:02;;;;;;;48.08;25.23;;;;;;;6.94;100.00;103901.59;5054719;28;20132;-53
2021/12/18 00:47:28;;;;;;;49.65;24.80;;;;;;;7.31;100.00;103962.13;5052713;28;20457;-52
2021/12/18 00:49:53;;;;;;;41.97;22.83;;;;;;;7.16;100.00;103927.59;5053275;28;20069;-52
2021/12/18 00:52:19;;;;;;;39.33;20.38;;;;;;;7.23;100.00;103931.31;5053939;28;20039;-51
2021/12/18 00:54:44;;;;;;;34.80;19.17;;;;;;;7.30;100.00;103941.13;5036022;28;20037;-54
2021/12/18 00:57:09;;;;;;;33.20;18.73;;;;;;;7.31;100.00;103946.41;5054079;28;20032;-50
2021/12/18 00:59:35;;;;;;;37.40;19.23;;;;;;;6.90;100.00;103870.91;5058777;28;20051;-54
2021/12/18 01:02:01;;;;;;;35.78;19.17;;;;;;;7.31;100.00;103942.91;5053898;28;20025;-50
2021/12/18 01:04:27;;;;;;;34.92;18.77;;;;;;;7.27;100.00;103941.91;5053970;28;20032;-51
2021/12/18 01:06:52;;;;;;;34.47;19.48;;;;;;;7.25;100.00;103946.22;5038336;28;20060;-55
2021/12/18 01:09:22;;;;;;;30.77;16.63;;;;;;;7.28;100.00;103942.81;5034138;28;20358;-53
2021/12/18 01:11:49;;;;;;;29.73;16.75;;;;;;;7.27;100.00;103941.91;5017247;28;20033;-53
2021/12/18 01:14:36;;;;;;;31.67;16.75;;;;;;;7.24;100.00;103936.59;5033997;28;20400;-54
2021/12/18 01:25:02;;;;;;;16.33;9.82;;;;;;;7.26;100.00;103949.75;5034178;28;20432;-50
2021/12/18 01:27:28;;;;;;;12.43;7.78;;;;;;;6.85;100.00;103887.31;5033881;28;20042;-51
2021/12/18 01:29:53;;;;;;;11.40;6.07;;;;;;;7.14;100.00;103931.03;5016305;28;20061;-54
2021/12/18 01:32:19;;;;;;;10.30;6.05;;;;;;;7.04;100.00;103914.13;5049391;28;20033;-50
2021/12/18 01:34:45;;;;;;;10.25;6.82;;;;;;;7.17;100.00;103950.34;5032933;28;20041;-53
2021/12/18 01:37:10;;;;;;;15.15;9.25;;;;;;;7.22;100.00;103943.50;5032797;28;20040;-54
2021/12/18 01:39:36;;;;;;;15.48;9.32;;;;;;;7.24;100.00;103964.50;5045026;28;20041;-51
2021/12/18 01:52:38;;;;;;;7.05;4.85;;;;;;;6.80;100.00;103895.03;5039566;28;20116;-52
2021/12/18 01:55:04;;;;;;;8.32;4.63;;;;;;;6.61;100.00;103859.53;5054146;28;20044;-51
2021/12/18 01:57:31;;;;;;;7.22;4.47;;;;;;;7.18;100.00;103970.44;5054231;28;20064;-53
2021/12/18 01:59:56;;;;;;;7.75;4.82;;;;;;;7.17;100.00;103963.44;5054448;28;20029;-50
2021/12/18 02:02:22;;;;;;;5.40;3.80;;;;;;;6.76;100.00;103885.31;5054240;28;20025;-51
2021/12/18 02:04:47;;;;;;;5.65;3.90;;;;;;;7.19;100.00;103953.00;5054044;28;20033;-52
2021/12/18 02:07:14;;;;;;;5.97;4.20;;;;;;;7.08;100.00;103934.34;5053921;28;20070;-52
2021/12/18 02:12:30;;;;;;;7.22;4.43;;;;;;;6.84;100.00;103891.66;5038718;28;20501;-52
2021/12/18 02:22:50;;;;;;;6.60;4.17;;;;;;;7.16;100.00;103935.47;5038683;28;20033;-54
2021/12/18 02:25:16;;;;;;;7.30;4.53;;;;;;;7.17;100.00;103939.88;5036052;28;20278;-53
2021/12/18 02:27:41;;;;;;;6.03;4.05;;;;;;;7.18;100.00;103933.78;5053713;28;20119;-52
2021/12/18 02:30:08;;;;;;;7.53;4.22;;;;;;;6.81;100.00;103865.41;5053722;28;20036;-54
2021/12/18 02:32:34;;;;;;;8.30;4.65;;;;;;;6.98;100.00;103889.47;5053520;28;20040;-53
2021/12/18 02:35:04;;;;;;;7.65;4.38;;;;;;;7.16;100.00;103924.97;5053686;28;20526;-54
2021/12/18 02:37:32;;;;;;;7.70;4.70;;;;;;;6.76;100.00;103862.66;5053438;28;20464;-49
2021/12/18 02:42:33;;;;;;;9.80;6.10;;;;;;;7.13;100.00;103929.22;5053391;28;20033;-50
2021/12/18 02:44:59;;;;;;;9.05;6.05;;;;;;;7.16;100.00;103931.94;5053129;28;20049;-50
2021/12/18 02:47:24;;;;;;;11.10;5.85;;;;;;;6.75;100.00;103860.84;5053223;28;20525;-51
2021/12/18 02:49:51;;;;;;;9.38;5.63;;;;;;;7.13;100.00;103930.13;5053269;28;20067;-52
2021/12/18 02:52:26;;;;;;;8.98;5.30;;;;;;;7.09;100.00;103914.28;5053255;28;20140;-52
2021/12/18 02:54:52;;;;;;;8.32;5.03;;;;;;;6.76;100.00;103856.50;5036105;28;20040;-52
2021/12/18 02:57:18;;;;;;;11.35;6.18;;;;;;;7.13;100.00;103924.88;5053074;28;20033;-52
2021/12/18 02:59:45;;;;;;;10.48;6.15;;;;;;;6.93;100.00;103873.63;5034244;28;20040;-53
2021/12/18 03:02:11;;;;;;;9.50;6.00;;;;;;;7.12;100.00;103933.59;5053112;28;20086;-53
2021/12/18 03:04:39;;;;;;;10.93;6.38;;;;;;;7.09;100.00;103909.91;5035299;28;20380;-51
2021/12/18 03:07:07;;;;;;;10.88;6.80;;;;;;;6.98;100.00;103886.84;5053055;28;20468;-54
2021/12/18 03:25:39;;;;;;;11.23;6.13;;;;;;;7.08;100.00;103930.84;5051599;28;20427;-51
2021/12/18 03:28:05;;;;;;;9.88;5.97;;;;;;;6.71;100.00;103863.34;5034964;28;20036;-50
2021/12/18 03:30:32;;;;;;;12.25;6.47;;;;;;;6.61;100.00;103841.22;5052526;28;20041;-54
2021/12/18 03:32:58;;;;;;;11.00;6.78;;;;;;;7.00;100.00;103922.75;5052114;28;20043;-50
2021/12/18 03:35:24;;;;;;;11.10;6.70;;;;;;;6.96;100.00;103909.50;5051175;28;20029;-50
2021/12/18 03:37:49;;;;;;;10.70;6.10;;;;;;;6.96;100.00;103910.38;5034665;28;20029;-49
2021/12/18 03:40:18;;;;;;;9.70;6.32;;;;;;;6.92;100.00;103913.75;5052535;28;20218;-55
2021/12/18 03:42:44;;;;;;;9.95;5.80;;;;;;;6.91;100.00;103905.84;5052129;28;20052;-52
2021/12/18 03:45:11;;;;;;;10.50;6.30;;;;;;;6.70;100.00;103866.78;5034415;28;20090;-50
2021/12/18 03:47:36;;;;;;;10.88;6.65;;;;;;;6.50;100.00;103837.38;5034390;28;20037;-48
2021/12/18 03:50:02;;;;;;;11.95;7.03;;;;;;;6.87;100.00;103899.63;5034570;28;20079;-49
2021/12/18 03:52:28;;;;;;;10.60;6.97;;;;;;;6.82;100.00;103889.84;5051705;28;20033;-51
2021/12/18 03:54:53;;;;;;;12.25;7.55;;;;;;;6.72;100.00;103875.56;5052016;28;20051;-51
2021/12/18 03:57:19;;;;;;;11.90;7.32;;;;;;;6.86;100.00;103895.22;5033102;28;20028;-51
2021/12/18 03:59:44;;;;;;;13.88;7.82;;;;;;;6.82;100.00;103905.56;5049356;28;20128;-51
2021/12/18 04:02:09;;;;;;;14.45;7.30;;;;;;;6.81;100.00;103907.28;5050418;28;20115;-51
2021/12/18 04:04:35;;;;;;;18.55;8.90;;;;;;;6.79;100.00;103901.13;5050110;28;20126;-52
2021/12/18 04:07:00;;;;;;;16.00;8.45;;;;;;;6.75;100.00;103905.38;5050080;28;20178;-50
2021/12/18 04:09:28;;;;;;;19.33;8.75;;;;;;;6.77;100.00;103906.28;5050012;28;20048;-50
2021/12/18 04:11:54;;;;;;;17.25;8.85;;;;;;;6.43;100.00;103844.97;5032834;28;20080;-50
2021/12/18 04:14:20;;;;;;;21.73;10.05;;;;;;;6.74;100.00;103906.19;5050271;28;20060;-54
2021/12/18 04:16:45;;;;;;;20.83;8.60;;;;;;;6.37;100.00;103835.19;5032338;28;20510;-51
2021/12/18 04:19:10;;;;;;;17.77;9.10;;;;;;;6.48;100.00;103859.09;5032071;28;20036;-52
2021/12/18 04:21:36;;;;;;;17.95;9.05;;;;;;;6.74;100.00;103911.44;5032238;28;20037;-51
2021/12/18 04:24:03;;;;;;;16.85;8.90;;;;;;;6.27;100.00;103829.63;5050098;28;20052;-52
2021/12/18 04:26:31;;;;;;;18.08;10.05;;;;;;;6.70;100.00;103919.16;5050059;28;20029;-51
2021/12/18 04:28:57;;;;;;;24.60;11.82;;;;;;;6.62;100.00;103904.94;5032088;28;20044;-51
2021/12/18 04:31:23;;;;;;;21.55;12.10;;;;;;;6.65;100.00;103918.13;5049963;28;20108;-53
2021/12/18 04:33:48;;;;;;;22.02;11.63;;;;;;;6.27;100.00;103858.41;5048286;28;20040;-50
2021/12/18 04:36:14;;;;;;;23.33;11.25;;;;;;;6.48;100.00;103911.44;5049401;28;20025;-50
2021/12/18 04:38:39;;;;;;;21.40;10.63;;;;;;;6.09;100.00;103838.66;5050088;28;20123;-52
2021/12/18 04:41:05;;;;;;;22.08;10.25;;;;;;;6.51;100.00;103920.25;5049650;28;20330;-52
2021/12/18 04:43:31;;;;;;;24.67;10.35;;;;;;;6.48;100.00;103933.25;5048469;28;20045;-51
2021/12/18 04:45:56;;;;;;;32.47;9.43;;;;;;;6.07;100.00;103855.13;5049571;28;20037;-56
2021/12/18 04:48:21;;;;;;;30.40;10.25;;;;;;;6.47;100.00;103923.63;5049777;28;20083;-52
2021/12/18 04:50:47;;;;;;;29.42;10.18;;;;;;;6.48;100.00;103921.91;5050212;28;20480;-52
2021/12/18 04:53:13;;;;;;;29.35;9.90;;;;;;;6.47;100.00;103933.22;5049671;28;20381;-53
2021/12/18 04:55:38;;;;;;;48.22;11.77;;;;;;;6.13;100.00;103863.16;5049678;28;20099;-54
2021/12/18 04:58:03;;;;;;;36.10;11.73;;;;;;;6.48;100.00;103927.16;5049561;28;20049;-55
2021/12/18 05:00:37;;;;;;;78.90;13.13;;;;;;;6.48;100.00;103935.84;5031206;28;20206;-51
2021/12/18 05:03:06;;;;;;;80.30;13.20;;;;;;;6.14;100.00;103872.78;5049425;28;20412;-52
2021/12/18 05:05:31;;;;;;;86.65;14.13;;;;;;;6.46;100.00;103918.34;5049934;28;20086;-53
2021/12/18 05:07:57;;;;;;;84.50;15.32;;;;;;;6.03;100.00;103843.66;5048280;28;20426;-52
2021/12/18 05:10:22;;;;;;;90.43;15.73;;;;;;;6.12;100.00;103859.66;5031214;28;20037;-56
2021/12/18 05:12:47;;;;;;;99.72;15.50;;;;;;;6.09;100.00;103861.28;5048121;28;20029;-51
2021/12/18 05:15:13;;;;;;;120.18;18.40;;;;;;;6.54;100.00;103935.16;5048316;28;20033;-51
2021/12/18 05:17:38;;;;;;;75.78;15.45;;;;;;;6.46;100.00;103918.34;5032052;28;20037;-51
2021/12/18 05:20:04;;;;;;;141.55;18.35;;;;;;;6.49;100.00;103927.19;5031717;28;20106;-51
2021/12/18 05:22:32;;;;;;;90.63;16.42;;;;;;;6.59;100.00;103944.09;5033768;28;20041;-51
2021/12/18 05:24:58;;;;;;;153.15;18.55;;;;;;;6.57;100.00;103932.66;5053125;28;20037;-51
2021/12/18 05:27:23;;;;;;;117.80;17.27;;;;;;;6.35;100.00;103899.66;5052997;28;20044;-51
2021/12/18 05:29:48;;;;;;;132.98;17.02;;;;;;;6.58;100.00;103943.19;5035223;28;20029;-50
2021/12/18 05:32:14;;;;;;;133.32;18.02;;;;;;;6.46;100.00;103924.47;5052950;28;20029;-52
2021/12/18 05:34:40;;;;;;;123.03;17.55;;;;;;;6.56;100.00;103952.72;5035412;28;20488;-49
2021/12/18 05:39:38;;;;;;;51.90;13.40;;;;;;;6.58;100.00;103951.03;5035697;28;20043;-51
2021/12/18 05:42:04;;;;;;;82.30;13.88;;;;;;;6.58;100.00;103934.44;5053156;28;20033;-53
2021/12/18 05:44:29;;;;;;;70.40;13.50;;;;;;;6.45;100.00;103925.28;5052287;28;20143;-50
2021/12/18 05:46:55;;;;;;;61.30;11.93;;;;;;;6.13;100.00;103865.75;5052762;28;20056;-53
2021/12/18 05:49:20;;;;;;;69.18;11.82;;;;;;;6.11;100.00;103867.44;5051289;28;20102;-55
2021/12/18 05:51:46;;;;;;;68.78;11.90;;;;;;;6.46;100.00;103942.78;5052965;28;20108;-54
2021/12/18 05:54:13;;;;;;;69.88;12.02;;;;;;;6.41;100.00;103930.38;5034627;28;20037;-55
2021/12/18 05:56:38;;;;;;;76.65;10.82;;;;;;;6.18;100.00;103906.97;5034609;28;20063;-55
2021/12/18 05:59:04;;;;;;;37.33;10.20;;;;;;;6.40;100.00;103926.88;5034791;28;20511;-51
2021/12/18 06:01:29;;;;;;;78.60;11.82;;;;;;;6.38;100.00;103928.56;5052134;28;20016;-52
2021/12/18 06:03:55;;;;;;;64.95;10.93;;;;;;;6.38;100.00;103940.75;5034631;28;20388;-49
2021/12/18 06:06:21;;;;;;;71.43;11.27;;;;;;;6.27;100.00;103911.63;5051172;28;20056;-50
2021/12/18 06:08:47;;;;;;;76.03;12.07;;;;;;;5.97;100.00;103855.63;5034223;28;20029;-49
2021/12/18 06:11:17;;;;;;;78.75;11.98;;;;;;;6.40;100.00;103925.97;5033686;28;20055;-54
2021/12/18 06:13:43;;;;;;;74.55;11.90;;;;;;;6.07;100.00;103873.44;5052052;28;20473;-51
2021/12/18 06:16:10;;;;;;;84.47;12.60;;;;;;;6.39;100.00;103919.84;5034492;28;20029;-50
2021/12/18 06:18:37;;;;;;;84.15;12.25;;;;;;;5.94;100.00;103856.41;5051354;28;20542;-51
2021/12/18 06:21:03;;;;;;;95.65;12.80;;;;;;;6.32;100.00;103927.44;5034265;28;20469;-52
2021/12/18 06:23:28;;;;;;;89.38;12.63;;;;;;;6.26;100.00;103906.31;5034189;28;20032;-52
2021/12/18 06:25:54;;;;;;;88.55;12.40;;;;;;;6.34;100.00;103918.81;5051868;28;20029;-51
2021/12/18 06:28:19;;;;;;;80.82;11.75;;;;;;;6.34;100.00;103917.91;5051414;28;20037;-52
2021/12/18 06:30:45;;;;;;;77.72;12.70;;;;;;;6.33;100.00;103931.84;5051457;28;20526;-51
2021/12/18 06:33:10;;;;;;;105.38;13.02;;;;;;;6.32;100.00;103912.66;5050874;28;20025;-51
2021/12/18 06:35:36;;;;;;;143.88;13.82;;;;;;;6.27;100.00;103918.56;5051115;28;20074;-52
2021/12/18 06:38:02;;;;;;;94.93;12.65;;;;;;;5.81;100.00;103840.25;5051219;28;20037;-51
2021/12/18 06:40:27;;;;;;;124.30;13.55;;;;;;;6.29;100.00;103927.34;5051311;28;20610;-53
2021/12/18 06:42:52;;;;;;;123.00;13.07;;;;;;;6.24;100.00;103916.75;5033974;28;20439;-52
2021/12/18 06:45:18;;;;;;;133.63;13.93;;;;;;;5.95;100.00;103862.53;5034219;28;20052;-52
2021/12/18 06:47:45;;;;;;;127.25;12.88;;;;;;;5.97;100.00;103872.22;5033374;28;20447;-54
2021/12/18 06:50:10;;;;;;;116.70;12.77;;;;;;;6.25;100.00;103923.72;5033476;28;20037;-51
2021/12/18 06:52:36;;;;;;;117.50;11.20;;;;;;;6.20;100.00;103917.47;5051632;28;20040;-50
2021/12/18 06:55:01;;;;;;;85.78;11.43;;;;;;;5.94;100.00;103874.72;5050158;28;20032;-52
2021/12/18 06:57:27;;;;;;;91.55;11.38;;;;;;;6.23;100.00;103933.25;5051152;28;20591;-50
2021/12/18 06:59:52;;;;;;;87.55;9.95;;;;;;;6.23;100.00;103939.38;5051593;28;20036;-50
2021/12/18 07:02:18;;;;;;;78.15;10.27;;;;;;;6.18;100.00;103937.44;5051832;28;20059;-53
2021/12/18 07:04:43;;;;;;;48.25;8.75;;;;;;;6.16;100.00;103940.00;5033398;28;20480;-53
2021/12/18 07:07:09;;;;;;;71.82;9.73;;;;;;;6.11;100.00;103936.34;5033994;28;20447;-53
2021/12/18 07:09:34;;;;;;;94.45;11.30;;;;;;;6.10;100.00;103947.63;5033208;28;20124;-53
2021/12/18 07:12:00;;;;;;;116.82;11.65;;;;;;;6.00;100.00;103937.69;5051396;28;20036;-47
2021/12/18 07:14:26;;;;;;;112.85;12.30;;;;;;;5.98;100.00;103939.34;5033690;28;20039;-50
2021/12/18 07:16:51;;;;;;;120.63;11.95;;;;;;;5.95;100.00;103947.09;5051832;28;20032;-52
2021/12/18 07:19:17;;;;;;;143.32;11.73;;;;;;;5.63;100.00;103903.19;5051271;28;20048;-54
2021/12/18 07:21:42;;;;;;;154.80;13.38;;;;;;;5.87;100.00;103950.25;5051212;28;20591;-52
2021/12/18 07:24:07;;;;;;;120.05;12.63;;;;;;;5.67;100.00;103911.19;5050567;28;20037;-53
2021/12/18 07:26:33;;;;;;;137.50;12.27;;;;;;;5.85;100.00;103951.88;5050939;28;20059;-52
2021/12/18 07:28:59;;;;;;;103.88;10.80;;;;;;;5.38;100.00;103867.44;5051388;28;20435;-51
2021/12/18 07:31:26;;;;;;;114.28;10.70;;;;;;;5.75;100.00;103942.81;5033176;28;20307;-50
2021/12/18 07:33:51;;;;;;;87.63;9.98;;;;;;;5.63;100.00;103927.56;5051044;28;20033;-52
2021/12/18 07:36:17;;;;;;;96.90;9.15;;;;;;;5.68;100.00;103936.50;5014268;28;20029;-53
2021/12/18 07:38:43;;;;;;;64.13;9.07;;;;;;;5.69;100.00;103948.72;5050450;28;20033;-50
2021/12/18 07:41:10;;;;;;;67.88;9.05;;;;;;;5.33;100.00;103870.69;5050737;28;20025;-49
2021/12/18 07:43:35;;;;;;;63.40;9.40;;;;;;;5.69;100.00;103937.41;5050102;28;20111;-51
2021/12/18 07:46:01;;;;;;;95.80;10.57;;;;;;;5.59;100.00;103923.09;5049885;28;20488;-51
2021/12/18 07:48:26;;;;;;;89.47;10.48;;;;;;;5.25;100.00;103885.22;5050347;28;20079;-52
2021/12/18 07:50:51;;;;;;;66.13;9.13;;;;;;;5.63;100.00;103945.00;5050261;28;20480;-52
2021/12/18 07:53:17;;;;;;;63.25;9.30;;;;;;;5.21;100.00;103872.84;5031827;28;20035;-52
2021/12/18 07:55:42;;;;;;;81.03;11.32;;;;;;;5.62;100.00;103978.09;5049076;28;20036;-53
2021/12/18 07:58:08;;;;;;;81.75;11.32;;;;;;;5.63;100.00;103951.09;5050311;28;20036;-54
2021/12/18 08:00:33;;;;;;;62.55;10.55;;;;;;;5.52;100.00;103931.53;5049907;28;20033;-56
2021/12/18 08:02:59;;;;;;;71.38;10.55;;;;;;;5.24;100.00;103899.09;5049860;28;20029;-52
2021/12/18 08:05:24;;;;;;;66.85;9.75;;;;;;;5.54;100.00;103955.13;5050586;28;20120;-52
2021/12/18 08:07:49;;;;;;;65.72;11.45;;;;;;;5.56;100.00;103948.22;5049017;28;20040;-52
2021/12/18 08:10:15;;;;;;;73.03;10.45;;;;;;;5.55;100.00;103946.41;5032272;28;20048;-53
2021/12/18 08:12:41;;;;;;;63.70;11.68;;;;;;;5.46;100.00;103933.91;5049731;28;20028;-51
2021/12/18 08:15:07;;;;;;;58.70;10.93;;;;;;;5.52;100.00;103934.13;5032316;28;20040;-54
2021/12/18 08:17:33;;;;;;;80.85;10.30;;;;;;;5.58;100.00;103950.03;5031912;28;20115;-52
2021/12/18 08:19:58;;;;;;;56.55;9.07;;;;;;;5.20;100.00;103882.41;5049329;28;20500;-53
2021/12/18 08:22:23;;;;;;;74.95;10.20;;;;;;;5.37;100.00;103894.38;5050785;28;20033;-53
2021/12/18 08:24:49;;;;;;;64.25;9.70;;;;;;;5.70;100.00;103957.44;5033329;28;20041;-50
2021/12/18 08:27:14;;;;;;;68.35;11.13;;;;;;;5.74;100.00;103959.34;5050829;28;20048;-54
2021/12/18 08:29:40;;;;;;;111.10;12.18;;;;;;;5.73;100.00;103954.06;5051344;28;20033;-53
2021/12/18 08:32:05;;;;;;;122.78;12.95;;;;;;;5.73;100.00;103959.28;5051571;28;20069;-51
2021/12/18 08:34:31;;;;;;;110.03;12.30;;;;;;;5.59;100.00;103937.88;5050318;28;20128;-55
2021/12/18 08:36:56;;;;;;;140.55;14.23;;;;;;;5.62;100.00;103945.81;5033682;28;20037;-50
2021/12/18 08:39:22;;;;;;;126.68;13.63;;;;;;;5.68;100.00;103964.34;5051499;28;20029;-52
2021/12/18 08:41:47;;;;;;;120.78;13.45;;;;;;;5.53;100.00;103940.25;5051502;28;20106;-51
2021/12/18 08:44:13;;;;;;;166.27;15.85;;;;;;;5.60;100.00;103945.75;5051195;28;20045;-55
2021/12/18 08:46:39;;;;;;;168.10;15.20;;;;;;;5.68;100.00;103952.19;5051313;28;20041;-52
2021/12/18 08:49:05;;;;;;;154.52;14.48;;;;;;;5.61;100.00;103973.69;5033448;28;20465;-54
2021/12/18 08:51:30;;;;;;;180.35;19.08;;;;;;;5.24;100.00;103886.91;5033768;28;20120;-53
2021/12/18 08:53:56;;;;;;;150.32;22.25;;;;;;;5.59;100.00;103951.84;5051254;28;20472;-51
2021/12/18 08:56:22;;;;;;;153.13;18.55;;;;;;;5.57;100.00;103945.63;5050226;28;20036;-51
2021/12/18 08:58:48;;;;;;;142.85;17.45;;;;;;;5.72;100.00;103960.13;5055345;28;20472;-53
2021/12/18 09:01:14;;;;;;;98.55;16.08;;;;;;;5.77;100.00;103964.69;5055073;28;20100;-54
2021/12/18 09:03:39;;;;;;;84.45;14.13;;;;;;;5.77;100.00;103959.47;5055393;28;20040;-54
2021/12/18 09:06:05;;;;;;;172.73;15.18;;;;;;;5.47;100.00;103926.97;5055272;28;20043;-50
2021/12/18 09:08:30;;;;;;;112.70;14.55;;;;;;;5.71;100.00;103959.25;5055129;28;20175;-53
2021/12/18 09:10:55;;;;;;;207.90;17.88;;;;;;;5.73;100.00;103968.00;5037358;28;20040;-51
2021/12/18 09:13:21;;;;;;;196.85;18.25;;;;;;;5.74;100.00;103950.63;5055173;28;20036;-55
2021/12/18 09:15:46;;;;;;;129.55;15.88;;;;;;;5.68;100.00;103943.44;5055044;28;20037;-52
2021/12/18 09:18:12;;;;;;;82.43;11.75;;;;;;;5.44;100.00;103895.50;5054974;28;20036;-55
2021/12/18 09:20:37;;;;;;;123.15;13.77;;;;;;;5.30;100.00;103866.25;5055039;28;20121;-54
2021/12/18 09:23:02;;;;;;;152.02;16.38;;;;;;;5.78;100.00;103970.81;5053592;28;20036;-53
2021/12/18 09:25:28;;;;;;;143.80;16.42;;;;;;;5.76;100.00;103951.56;5053473;28;20039;-51
2021/12/18 09:27:57;;;;;;;208.73;17.95;;;;;;;5.42;100.00;103882.41;5054843;28;20033;-55
2021/12/18 09:30:24;;;;;;;182.05;18.00;;;;;;;5.79;100.00;103935.97;5037019;28;20083;-52
2021/12/18 09:32:50;;;;;;;144.55;16.52;;;;;;;5.90;100.00;103951.25;5054658;28;20033;-52
2021/12/18 09:35:15;;;;;;;95.25;12.93;;;;;;;5.85;100.00;103944.06;5036725;28;20040;-54
2021/12/18 09:37:41;;;;;;;80.18;11.15;;;;;;;5.68;100.00;103912.09;5036140;28;20476;-53
2021/12/18 09:40:08;;;;;;;93.63;11.90;;;;;;;5.45;100.00;103879.00;5036746;28;20032;-54
2021/12/18 09:42:33;;;;;;;89.47;12.98;;;;;;;5.61;100.00;103899.63;5054510;28;20032;-56
2021/12/18 09:44:59;;;;;;;66.65;9.93;;;;;;;5.88;100.00;103975.56;5054148;28;20067;-55
2021/12/18 09:47:24;;;;;;;64.55;9.77;;;;;;;5.89;100.00;103951.22;5036760;28;20040;-53
2021/12/18 09:49:50;;;;;;;41.25;8.88;;;;;;;5.92;100.00;103948.72;5054582;28;20033;-52
2021/12/18 09:52:16;;;;;;;48.10;9.80;;;;;;;5.88;100.00;103933.75;5054231;28;20516;-55
2021/12/18 09:54:41;;;;;;;57.38;8.38;;;;;;;6.00;100.00;103940.31;5036846;28;20037;-53
2021/12/18 09:57:07;;;;;;;39.85;7.82;;;;;;;6.02;100.00;103956.94;5054331;28;20106;-54
2021/12/18 09:59:32;;;;;;;32.92;8.18;;;;;;;6.05;100.00;103943.97;5019327;28;20041;-52
2021/12/18 10:01:58;;;;;;;64.55;8.93;;;;;;;6.09;100.00;103942.34;5054105;28;20033;-54
2021/12/18 10:04:27;;;;;;;41.88;8.15;;;;;;;6.05;100.00;103937.84;5054210;28;20083;-52
2021/12/18 10:06:53;;;;;;;35.20;8.10;;;;;;;6.01;100.00;103925.50;5052640;28;20033;-52
2021/12/18 10:09:18;;;;;;;58.45;9.10;;;;;;;6.20;100.00;103934.03;5036078;28;20677;-53
2021/12/18 10:11:50;;;;;;;30.20;6.85;;;;;;;5.86;100.00;103868.34;5054171;28;20090;-54
2021/12/18 10:14:17;;;;;;;43.63;6.93;;;;;;;5.83;100.00;103862.06;5053948;28;20129;-53
2021/12/18 10:16:49;;;;;;;58.65;7.63;;;;;;;5.97;100.00;103889.63;5035971;28;20025;-52
2021/12/18 10:19:38;;;;;;;59.88;7.22;;;;;;;6.22;100.00;103947.16;5053657;28;20370;-49
2021/12/18 10:22:07;;;;;;;67.50;9.82;;;;;;;5.76;100.00;103867.91;5036476;28;20071;-51
2021/12/18 10:24:34;;;;;;;71.15;9.82;;;;;;;6.04;100.00;103933.47;5051942;28;20516;-53
2021/12/18 10:27:00;;;;;;;58.03;9.02;;;;;;;5.58;100.00;103882.09;5052050;28;20041;-54
2021/12/18 10:29:35;;;;;;;58.00;9.55;;;;;;;5.80;100.00;103951.75;5053171;28;20033;-51
2021/12/18 10:32:08;;;;;;;48.30;8.25;;;;;;;5.77;100.00;103932.44;5053662;28;20037;-53
2021/12/18 10:34:33;;;;;;;91.25;10.50;;;;;;;5.36;100.00;103861.25;5035566;28;20112;-49
2021/12/18 10:37:21;;;;;;;69.78;10.32;;;;;;;5.84;100.00;103937.06;5053756;28;20118;-48
2021/12/18 10:39:50;;;;;;;89.57;9.07;;;;;;;5.64;100.00;103946.75;5053106;28;20048;-51
2021/12/18 10:42:21;;;;;;;67.97;9.18;;;;;;;5.62;100.00;103943.22;5053510;28;20039;-50
2021/12/18 10:44:58;;;;;;;54.25;8.70;;;;;;;5.66;100.00;103934.66;5053368;28;20091;-50
2021/12/18 10:47:24;;;;;;;36.13;7.75;;;;;;;5.25;100.00;103852.16;5038152;28;20032;-54
2021/12/18 10:49:50;;;;;;;36.20;7.97;;;;;;;5.65;100.00;103922.41;5053341;28;20056;-54
2021/12/18 10:52:15;;;;;;;36.25;8.10;;;;;;;5.36;100.00;103861.25;5053320;28;20064;-50
2021/12/18 10:54:41;;;;;;;44.03;8.05;;;;;;;5.64;100.00;103907.56;5051939;28;20262;-53
2021/12/18 10:57:18;;;;;;;46.58;9.13;;;;;;;5.82;100.00;103923.91;5052355;28;20040;-53
2021/12/18 10:59:46;;;;;;;20.08;6.80;;;;;;;5.95;100.00;103939.25;5034551;28;20036;-51
2021/12/18 11:02:14;;;;;;;24.23;7.43;;;;;;;5.66;100.00;103872.81;5051681;28;20027;-50
2021/12/18 11:04:40;;;;;;;39.28;8.82;;;;;;;6.04;100.00;103918.63;5052879;28;20115;-51
2021/12/18 11:07:16;;;;;;;43.08;7.63;;;;;;;5.81;100.00;103879.44;5052415;28;20044;-58
2021/12/18 11:09:48;;;;;;;34.20;8.05;;;;;;;6.10;100.00;103928.47;5053006;28;20044;-54
2021/12/18 11:14:58;;;;;;;44.15;9.32;;;;;;;6.03;100.00;103927.34;5050209;28;20063;-56
2021/12/18 11:17:23;;;;;;;26.00;7.75;;;;;;;5.95;100.00;103913.13;5052630;28;20464;-55
2021/12/18 11:19:48;;;;;;;30.00;8.05;;;;;;;5.90;100.00;103898.06;5017096;28;20567;-51
2021/12/18 11:22:15;;;;;;;39.92;9.93;;;;;;;6.03;100.00;103918.59;5034468;28;20029;-51
2021/12/18 11:25:02;;;;;;;18.98;7.43;;;;;;;5.81;100.00;103872.47;5033945;28;20029;-52
2021/12/18 11:27:29;;;;;;;17.42;6.25;;;;;;;6.11;100.00;103907.56;5037602;28;20094;-50
2021/12/18 11:30:08;;;;;;;30.55;6.22;;;;;;;6.16;100.00;103915.56;5017659;28;20033;-51
2021/12/18 11:32:38;;;;;;;31.33;5.70;;;;;;;5.77;100.00;103859.25;5034231;28;20043;-50
2021/12/18 11:35:07;;;;;;;67.55;10.60;;;;;;;6.13;100.00;103920.69;5034736;28;20036;-52
2021/12/18 11:37:41;;;;;;;29.05;7.25;;;;;;;6.17;100.00;103913.00;5052465;28;20104;-49
2021/12/18 11:40:08;;;;;;;30.88;7.95;;;;;;;5.89;100.00;103847.53;5034459;28;20102;-51
2021/12/18 11:42:34;;;;;;;37.90;8.55;;;;;;;5.95;100.00;103837.28;5050797;28;20417;-52
2021/12/18 11:45:02;;;;;;;30.63;8.13;;;;;;;6.32;100.00;103910.03;5017515;28;20056;-51
2021/12/18 11:47:37;;;;;;;29.67;8.10;;;;;;;6.34;100.00;103904.84;5052342;28;20029;-54
2021/12/18 11:50:21;;;;;;;25.90;7.55;;;;;;;5.91;100.00;103819.72;5051794;28;20029;-53
2021/12/18 11:53:02;;;;;;;28.17;7.93;;;;;;;5.87;100.00;103827.38;5052066;28;20069;-52
2021/12/18 11:55:35;;;;;;;29.48;7.88;;;;;;;5.90;100.00;103815.31;5036892;28;20388;-54
2021/12/18 11:58:03;;;;;;;29.55;9.20;;;;;;;6.01;100.00;103826.16;5051816;28;20045;-51
2021/12/18 12:00:39;;;;;;;25.42;9.07;;;;;;;6.36;100.00;103880.53;5051992;28;20043;-53
2021/12/18 12:03:09;;;;;;;19.77;7.82;;;;;;;6.04;100.00;103828.88;5051676;28;20060;-50
2021/12/18 12:05:40;;;;;;;21.17;7.90;;;;;;;6.01;100.00;103815.69;5050331;28;20028;-50